Bf Esperanza — V2BR8 — position and weather

sailwx.info

Track history (hours):
 
Tides and Currents Weather Stations Pressure Air Temp Water Temp Dewpoint Dewpoint Depression Visibility Wind Speed Wind Dir Waves Ship Positions

Bf Esperanza

Last reported at 2016-Dec-10 21:33 UTC. Time now 2016-Dec-11 02:16 UTC.
Position N 43°09' E 005°09'.

Length 135 m; draft 8.1 m.

Type: Ship (hazmat cat A). MMSI: 304907000.

Date/timePositionNaut miles runAvg speedWind from/ knotsBaromVisibWave heightAir tempDewpointWater temp
2016-Dec-10 21:33N 43°09' E 005°09'1212.2
2016-Dec-10 20:31N 43°20' E 005°17'2 0.1
2016-Dec-09 04:18N 43°21' E 005°20'5 6.1
2016-Dec-09 03:33N 43°19' E 005°15'4113.6
2016-Dec-09 00:31N 42°47' E 004°38'2713.5
2016-Dec-08 22:32N 42°28' E 004°12'1514.2
2016-Dec-08 21:30N 42°18' E 003°58'1414.4
2016-Dec-08 20:32N 42°08' E 003°45'1413.9
2016-Dec-08 19:33N 41°58' E 003°32'1413.7
2016-Dec-08 18:33N 41°49' E 003°18'1414.5
2016-Dec-08 17:33N 41°41' E 003°03'1414.5
2016-Dec-08 16:33N 41°33' E 002°46'2014.4
2016-Dec-08 15:11N 41°22' E 002°24'11 1.2
2016-Dec-08 06:12N 41°17' E 002°11'913.7
2016-Dec-08 05:33N 41°10' E 002°04'1514.8
2016-Dec-08 04:31N 40°58' E 001°50'1414.8
2016-Dec-08 03:33N 40°47' E 001°38'1414.6
2016-Dec-08 02:33N 40°37' E 001°25'1514.5
2016-Dec-08 01:33N 40°27' E 001°11'1614.7
2016-Dec-08 00:29N 40°16' E 000°56'6315.0
2016-Dec-07 20:18N 39°34' W 000°04'1115.0
2016-Dec-07 19:33N 39°26' W 000°15'3 2.7
2016-Dec-07 18:25N 39°27' W 000°19'0 0.0
2016-Dec-07 17:18N 39°27' W 000°19'0 0.0
2016-Dec-07 16:21N 39°27' W 000°19'0 0.0
2016-Dec-07 12:31N 39°27' W 000°19'0 0.0
2016-Dec-07 11:22N 39°27' W 000°19'0 0.0
2016-Dec-07 10:30N 39°27' W 000°19'0 0.0
2016-Dec-07 09:30N 39°27' W 000°19'0 0.0
2016-Dec-07 08:32N 39°27' W 000°19'0 0.0
2016-Dec-07 07:23N 39°27' W 000°19'0 0.0
2016-Dec-07 05:19N 39°27' W 000°19'0 0.4
2016-Dec-07 04:33N 39°27' W 000°19'3 0.1
2016-Dec-05 08:16N 39°24' W 000°16'0 0.0
2016-Dec-05 02:18N 39°24' W 000°16'0 0.0
2016-Dec-05 01:12N 39°24' W 000°16'0 0.0
2016-Dec-05 00:32N 39°24' W 000°16'0 0.0
2016-Dec-04 12:12N 39°24' W 000°16'0 0.0
2016-Dec-04 11:24N 39°24' W 000°16'  
Track history (hours):
 
Tides and Currents Weather Stations Pressure Air Temp Water Temp Dewpoint Dewpoint Depression Visibility Wind Speed Wind Dir Waves Ship Positions

Bf Esperanza

Last reported at 2016-Dec-10 21:33 UTC. Time now 2016-Dec-11 02:16 UTC.
Position N 43°09' E 005°09'.

Length 135 m; draft 8.1 m.

Type: Ship (hazmat cat A). MMSI: 304907000.

Date/timePositionNaut miles runAvg speedWind from/ knotsBaromVisibWave heightAir tempDewpointWater temp
2016-Dec-10 21:33N 43°09' E 005°09'1212.2
2016-Dec-10 20:31N 43°20' E 005°17'2 0.1
2016-Dec-09 04:18N 43°21' E 005°20'5 6.1
2016-Dec-09 03:33N 43°19' E 005°15'4113.6
2016-Dec-09 00:31N 42°47' E 004°38'2713.5
2016-Dec-08 22:32N 42°28' E 004°12'1514.2
2016-Dec-08 21:30N 42°18' E 003°58'1414.4
2016-Dec-08 20:32N 42°08' E 003°45'1413.9
2016-Dec-08 19:33N 41°58' E 003°32'1413.7
2016-Dec-08 18:33N 41°49' E 003°18'1414.5
2016-Dec-08 17:33N 41°41' E 003°03'1414.5
2016-Dec-08 16:33N 41°33' E 002°46'2014.4
2016-Dec-08 15:11N 41°22' E 002°24'11 1.2
2016-Dec-08 06:12N 41°17' E 002°11'913.7
2016-Dec-08 05:33N 41°10' E 002°04'1514.8
2016-Dec-08 04:31N 40°58' E 001°50'1414.8
2016-Dec-08 03:33N 40°47' E 001°38'1414.6
2016-Dec-08 02:33N 40°37' E 001°25'1514.5
2016-Dec-08 01:33N 40°27' E 001°11'1614.7
2016-Dec-08 00:29N 40°16' E 000°56'6315.0
2016-Dec-07 20:18N 39°34' W 000°04'1115.0
2016-Dec-07 19:33N 39°26' W 000°15'3 2.7
2016-Dec-07 18:25N 39°27' W 000°19'0 0.0
2016-Dec-07 17:18N 39°27' W 000°19'0 0.0
2016-Dec-07 16:21N 39°27' W 000°19'0 0.0
2016-Dec-07 12:31N 39°27' W 000°19'0 0.0
2016-Dec-07 11:22N 39°27' W 000°19'0 0.0
2016-Dec-07 10:30N 39°27' W 000°19'0 0.0
2016-Dec-07 09:30N 39°27' W 000°19'0 0.0
2016-Dec-07 08:32N 39°27' W 000°19'0 0.0
2016-Dec-07 07:23N 39°27' W 000°19'0 0.0
2016-Dec-07 05:19N 39°27' W 000°19'0 0.4
2016-Dec-07 04:33N 39°27' W 000°19'3 0.1
2016-Dec-05 08:16N 39°24' W 000°16'0 0.0
2016-Dec-05 02:18N 39°24' W 000°16'0 0.0
2016-Dec-05 01:12N 39°24' W 000°16'0 0.0
2016-Dec-05 00:32N 39°24' W 000°16'0 0.0
2016-Dec-04 12:12N 39°24' W 000°16'0 0.0
2016-Dec-04 11:24N 39°24' W 000°16'  

Dump ship's entire track history